Time;durP1;ratioP1;P1;durP2;ratioP2;P2;SDS_P1;SDS_P2;PMS_P1;PMS_P2;Temp;Humidity;BMP_temperature;BMP_pressure;BME280_temperature;BME280_humidity;BME280_pressure;Samples;Min_cycle;Max_cycle;Signal;HPM_P1;HPM_P2
2023/07/30 00:02:17;;;;;;;1.48;0.40;;;19.80;99.90;;;;;;5057099;28;20036;-80
2023/07/30 00:04:42;;;;;;;1.60;0.30;;;19.80;99.90;;;;;;5038884;28;20025;-81
2023/07/30 00:07:08;;;;;;;0.57;0.40;;;19.70;99.90;;;;;;5057148;28;20037;-81
2023/07/30 00:09:34;;;;;;;1.75;0.50;;;19.80;99.90;;;;;;5056771;28;20068;-81
2023/07/30 00:11:59;;;;;;;0.65;0.30;;;19.80;99.90;;;;;;5039631;28;20021;-80
2023/07/30 00:14:25;;;;;;;1.77;0.40;;;19.70;99.90;;;;;;5056753;28;20369;-81
2023/07/30 00:16:50;;;;;;;0.88;0.38;;;19.70;99.90;;;;;;5056553;28;20032;-81
2023/07/30 00:19:16;;;;;;;0.85;0.50;;;19.70;99.90;;;;;;5035865;28;20117;-82
2023/07/30 00:21:45;;;;;;;1.23;0.43;;;19.70;99.90;;;;;;5035818;28;20021;-82
2023/07/30 00:24:11;;;;;;;1.55;0.40;;;19.70;99.90;;;;;;5034172;28;20486;-81
2023/07/30 00:26:38;;;;;;;0.98;0.50;;;19.70;99.90;;;;;;5036900;28;20033;-83
2023/07/30 00:29:03;;;;;;;1.52;0.50;;;19.70;99.90;;;;;;5035312;28;20037;-81
2023/07/30 00:31:29;;;;;;;1.13;0.73;;;19.60;99.90;;;;;;5047278;28;20378;-79
2023/07/30 00:33:55;;;;;;;1.27;0.70;;;19.70;99.90;;;;;;5037480;28;20107;-77
2023/07/30 00:36:20;;;;;;;0.77;0.60;;;19.70;99.90;;;;;;5056435;28;20032;-80
2023/07/30 00:38:46;;;;;;;1.08;0.60;;;19.70;99.90;;;;;;5038395;28;20029;-81
2023/07/30 00:41:11;;;;;;;2.45;0.77;;;19.60;99.90;;;;;;5038750;28;20033;-81
2023/07/30 00:43:37;;;;;;;1.55;0.60;;;19.70;99.90;;;;;;5039115;28;20123;-82
2023/07/30 00:46:03;;;;;;;2.92;0.98;;;19.70;99.90;;;;;;5056192;28;20021;-81
2023/07/30 00:48:29;;;;;;;1.63;0.80;;;19.70;99.90;;;;;;5038521;28;20039;-82
2023/07/30 00:50:55;;;;;;;2.38;0.73;;;19.60;99.90;;;;;;5056300;28;20024;-81
2023/07/30 00:53:23;;;;;;;1.98;0.98;;;19.70;99.90;;;;;;5056126;28;20029;-81
2023/07/30 00:55:49;;;;;;;1.27;0.70;;;19.70;99.90;;;;;;5038058;28;20025;-82
2023/07/30 00:58:15;;;;;;;1.70;1.10;;;19.70;99.90;;;;;;5036640;28;20063;-80
2023/07/30 01:00:41;;;;;;;1.70;0.70;;;19.70;99.90;;;;;;5037566;28;20041;-81
2023/07/30 01:03:07;;;;;;;1.42;0.80;;;19.70;99.90;;;;;;5034784;28;20124;-81
2023/07/30 01:05:33;;;;;;;2.33;0.98;;;19.70;99.90;;;;;;5050695;28;20064;-81
2023/07/30 01:07:59;;;;;;;1.92;0.70;;;19.80;99.90;;;;;;5037739;28;20470;-81
2023/07/30 01:10:25;;;;;;;2.17;0.95;;;19.80;99.90;;;;;;5038316;28;20060;-81
2023/07/30 01:12:52;;;;;;;2.42;1.10;;;19.80;99.90;;;;;;5037775;28;20057;-79
2023/07/30 01:15:18;;;;;;;2.13;1.10;;;19.80;99.90;;;;;;5038721;28;20025;-81
2023/07/30 01:17:44;;;;;;;2.67;1.10;;;19.90;99.90;;;;;;5055042;28;20052;-82
2023/07/30 01:20:11;;;;;;;2.40;1.00;;;19.90;99.90;;;;;;5055617;28;20029;-81
2023/07/30 01:22:36;;;;;;;1.88;0.93;;;19.90;99.90;;;;;;5042896;28;20036;-81
2023/07/30 01:25:02;;;;;;;2.72;0.90;;;19.90;99.90;;;;;;5074936;28;20020;-80
2023/07/30 01:27:31;;;;;;;3.60;1.05;;;19.90;99.90;;;;;;5075007;28;20032;-80
2023/07/30 01:30:08;;;;;;;1.23;0.90;;;19.90;99.90;;;;;;5074876;28;20103;-80
2023/07/30 01:32:33;;;;;;;2.08;1.00;;;19.90;99.90;;;;;;5057238;28;20034;-80
2023/07/30 01:35:01;;;;;;;2.60;1.15;;;19.90;99.90;;;;;;5057060;28;20032;-81
2023/07/30 01:37:29;;;;;;;1.60;1.00;;;19.90;99.90;;;;;;5055188;28;20029;-80
2023/07/30 01:39:55;;;;;;;4.72;1.33;;;19.90;99.90;;;;;;5055562;28;20053;-80
2023/07/30 01:42:20;;;;;;;2.22;0.88;;;19.90;99.90;;;;;;5032375;28;20402;-81
2023/07/30 01:44:46;;;;;;;1.98;0.90;;;19.90;99.90;;;;;;5037375;28;20035;-81
2023/07/30 01:47:12;;;;;;;2.85;1.08;;;19.90;99.90;;;;;;5033923;28;20033;-79
2023/07/30 01:49:37;;;;;;;3.58;0.90;;;19.90;99.90;;;;;;5044857;28;20021;-81
2023/07/30 01:52:03;;;;;;;1.58;0.90;;;19.80;99.90;;;;;;5043661;28;20520;-83
2023/07/30 01:54:29;;;;;;;1.85;1.02;;;19.80;99.90;;;;;;5054489;28;20028;-84
2023/07/30 01:56:54;;;;;;;3.22;0.98;;;19.80;99.90;;;;;;5054161;28;20047;-86
2023/07/30 01:59:20;;;;;;;2.10;1.00;;;19.80;99.90;;;;;;5054480;28;20041;-86
2023/07/30 02:01:45;;;;;;;3.80;1.08;;;19.70;99.90;;;;;;5036333;28;20021;-85
2023/07/30 02:04:11;;;;;;;2.58;1.38;;;19.80;99.90;;;;;;5037219;28;20043;-84
2023/07/30 02:06:37;;;;;;;2.35;1.02;;;19.70;99.90;;;;;;5057259;28;20020;-84
2023/07/30 02:09:02;;;;;;;2.95;1.20;;;19.70;99.90;;;;;;5074510;28;20025;-84
2023/07/30 02:11:28;;;;;;;1.75;1.15;;;19.70;99.90;;;;;;5057035;28;20021;-84
2023/07/30 02:13:53;;;;;;;2.63;1.20;;;19.70;99.90;;;;;;5074349;28;20442;-84
2023/07/30 02:16:19;;;;;;;3.78;1.35;;;19.70;99.90;;;;;;5057041;28;20461;-84
2023/07/30 02:18:45;;;;;;;2.42;1.10;;;19.70;99.90;;;;;;5056286;28;20031;-85
2023/07/30 02:21:10;;;;;;;3.15;1.13;;;19.60;99.90;;;;;;5056858;28;20020;-83
2023/07/30 02:23:36;;;;;;;2.42;1.10;;;19.60;99.90;;;;;;5074588;28;20024;-82
2023/07/30 02:26:02;;;;;;;1.73;1.05;;;19.60;99.90;;;;;;5073813;28;20017;-83
2023/07/30 02:28:27;;;;;;;4.93;1.38;;;19.60;99.90;;;;;;5056840;28;20035;-83
2023/07/30 02:30:53;;;;;;;1.60;1.27;;;19.60;99.90;;;;;;5074059;28;20103;-83
2023/07/30 02:33:18;;;;;;;4.05;1.67;;;19.60;99.90;;;;;;5056639;28;20028;-83
2023/07/30 02:35:44;;;;;;;5.10;1.55;;;19.60;99.90;;;;;;5042888;28;20116;-83
2023/07/30 02:38:10;;;;;;;2.25;1.45;;;19.60;99.90;;;;;;5032726;28;20022;-83
2023/07/30 02:40:35;;;;;;;2.63;1.17;;;19.70;99.90;;;;;;5033462;28;20056;-83
2023/07/30 02:43:01;;;;;;;2.97;1.75;;;19.70;99.90;;;;;;5033010;28;20218;-82
2023/07/30 02:45:27;;;;;;;5.47;1.50;;;19.70;99.90;;;;;;5033003;28;20028;-81
2023/07/30 02:47:52;;;;;;;1.83;1.20;;;19.80;99.90;;;;;;5032813;28;20029;-83
2023/07/30 02:50:18;;;;;;;3.28;1.30;;;19.80;99.90;;;;;;5017070;28;20030;-82
2023/07/30 02:52:44;;;;;;;5.10;1.52;;;19.80;99.90;;;;;;5033974;28;20049;-83
2023/07/30 02:55:09;;;;;;;2.35;1.50;;;19.80;99.90;;;;;;5033557;28;20049;-84
2023/07/30 02:57:35;;;;;;;2.55;1.48;;;19.80;99.90;;;;;;5033305;28;20079;-84
2023/07/30 03:00:00;;;;;;;3.08;1.45;;;19.80;99.90;;;;;;5016103;28;20045;-85
2023/07/30 03:02:26;;;;;;;3.30;1.40;;;19.80;99.90;;;;;;5033417;28;20022;-85
2023/07/30 03:04:52;;;;;;;3.33;1.30;;;19.80;99.90;;;;;;5032429;28;20104;-85
2023/07/30 03:07:18;;;;;;;2.90;1.27;;;19.90;99.90;;;;;;5033549;28;20038;-84
2023/07/30 03:09:44;;;;;;;4.28;1.85;;;19.90;99.90;;;;;;5042273;28;20055;-85
2023/07/30 03:12:09;;;;;;;3.30;1.40;;;19.90;99.90;;;;;;5016373;28;20034;-85
2023/07/30 03:14:35;;;;;;;2.15;1.02;;;19.90;99.90;;;;;;5034080;28;20025;-84
2023/07/30 03:17:00;;;;;;;2.35;1.30;;;19.90;99.90;;;;;;5016173;28;20045;-85
2023/07/30 03:19:26;;;;;;;1.77;1.42;;;19.90;99.90;;;;;;5025578;28;20228;-85
2023/07/30 03:21:51;;;;;;;3.08;1.20;;;19.90;99.90;;;;;;5014870;28;20040;-85
2023/07/30 03:24:17;;;;;;;1.65;1.20;;;19.90;99.90;;;;;;5038119;28;20029;-85
2023/07/30 03:26:42;;;;;;;3.08;1.25;;;19.90;99.90;;;;;;5022670;28;20029;-84
2023/07/30 03:29:08;;;;;;;2.22;1.20;;;19.90;99.90;;;;;;5017726;28;20038;-84
2023/07/30 03:31:34;;;;;;;1.85;1.50;;;19.90;99.90;;;;;;5032449;28;20021;-84
2023/07/30 03:33:59;;;;;;;6.63;1.40;;;19.90;99.90;;;;;;5027898;28;20026;-84
2023/07/30 03:36:25;;;;;;;3.50;1.20;;;19.90;99.90;;;;;;5023333;28;20029;-83
2023/07/30 03:38:50;;;;;;;1.98;1.40;;;19.80;99.90;;;;;;5037891;28;20030;-84
2023/07/30 03:41:16;;;;;;;4.78;1.83;;;19.80;99.90;;;;;;5032849;28;20042;-84
2023/07/30 03:43:41;;;;;;;1.95;1.30;;;19.80;99.90;;;;;;5031222;28;20108;-83
2023/07/30 03:46:07;;;;;;;3.65;1.45;;;19.70;99.90;;;;;;5014904;28;20041;-84
2023/07/30 03:48:33;;;;;;;2.05;1.40;;;19.70;99.90;;;;;;5021641;28;20129;-84
2023/07/30 03:50:58;;;;;;;1.90;1.13;;;19.70;99.90;;;;;;5031911;28;20040;-82
2023/07/30 03:53:24;;;;;;;2.00;1.30;;;19.60;99.90;;;;;;5031516;28;20463;-83
2023/07/30 03:55:49;;;;;;;4.32;1.30;;;19.60;99.90;;;;;;5032201;28;20026;-83
2023/07/30 03:58:15;;;;;;;3.55;1.15;;;19.70;99.90;;;;;;5020287;28;20033;-83
2023/07/30 04:00:40;;;;;;;2.65;1.08;;;19.70;99.90;;;;;;5034785;28;20406;-82
2023/07/30 04:03:06;;;;;;;3.35;1.50;;;19.70;99.90;;;;;;5034984;28;20021;-82
2023/07/30 04:05:32;;;;;;;1.40;1.10;;;19.70;99.90;;;;;;5035447;28;20055;-82
2023/07/30 04:07:57;;;;;;;3.08;1.20;;;19.60;99.90;;;;;;5038477;28;20025;-83
2023/07/30 04:10:23;;;;;;;1.95;1.00;;;19.70;99.90;;;;;;5039178;28;20496;-83
2023/07/30 04:12:49;;;;;;;2.67;1.17;;;19.70;99.90;;;;;;5043200;28;20067;-83
2023/07/30 04:15:15;;;;;;;2.05;0.93;;;19.70;99.90;;;;;;5056421;28;20025;-83
2023/07/30 04:17:41;;;;;;;2.08;1.30;;;19.70;99.90;;;;;;5038162;28;20028;-83
2023/07/30 04:20:09;;;;;;;2.00;0.98;;;19.70;99.90;;;;;;5036813;28;20545;-83
2023/07/30 04:22:35;;;;;;;4.25;1.25;;;19.70;99.90;;;;;;5055929;28;20425;-82
2023/07/30 04:25:01;;;;;;;1.77;1.10;;;19.70;99.90;;;;;;5035489;28;20083;-83
2023/07/30 04:27:26;;;;;;;2.30;1.00;;;19.60;99.90;;;;;;5023331;28;20029;-83
2023/07/30 04:29:52;;;;;;;1.48;0.98;;;19.60;99.90;;;;;;5027946;28;20043;-83
2023/07/30 04:32:18;;;;;;;3.15;0.98;;;19.60;99.90;;;;;;5033574;28;20466;-83
2023/07/30 04:34:43;;;;;;;2.67;0.90;;;19.50;99.90;;;;;;5054995;28;20171;-84
2023/07/30 04:37:09;;;;;;;2.30;1.15;;;19.40;99.90;;;;;;5039973;28;20527;-85
2023/07/30 04:39:35;;;;;;;1.30;0.88;;;19.30;99.90;;;;;;5037565;28;20037;-85
2023/07/30 04:42:01;;;;;;;1.92;1.23;;;19.30;99.90;;;;;;5038053;28;20477;-84
2023/07/30 04:44:27;;;;;;;1.20;0.75;;;19.20;99.90;;;;;;5038385;28;20032;-84
2023/07/30 04:46:52;;;;;;;2.13;0.95;;;19.20;99.90;;;;;;5037982;28;20029;-85
2023/07/30 04:49:18;;;;;;;2.35;0.90;;;19.20;99.90;;;;;;5055785;28;20121;-84
2023/07/30 04:51:44;;;;;;;1.00;0.63;;;19.20;99.90;;;;;;5039126;28;20029;-84
2023/07/30 04:54:09;;;;;;;1.63;1.02;;;19.20;99.90;;;;;;5037911;28;20033;-85
2023/07/30 04:56:35;;;;;;;1.70;1.05;;;19.30;99.90;;;;;;5037991;28;20496;-85
2023/07/30 04:59:01;;;;;;;0.93;0.68;;;19.20;99.90;;;;;;5049428;28;20082;-88
2023/07/30 05:01:27;;;;;;;4.20;1.55;;;19.20;99.90;;;;;;5056146;28;20049;-84
2023/07/30 05:03:53;;;;;;;1.10;0.80;;;19.30;99.90;;;;;;5037807;28;20053;-84
2023/07/30 05:06:19;;;;;;;1.38;0.73;;;19.30;99.90;;;;;;5056128;28;20032;-85
2023/07/30 05:08:44;;;;;;;2.17;1.00;;;19.30;99.90;;;;;;5051273;28;20026;-89
2023/07/30 05:11:10;;;;;;;2.15;1.00;;;19.20;99.90;;;;;;5055541;28;20044;-89
2023/07/30 05:13:35;;;;;;;1.95;0.85;;;19.20;99.90;;;;;;5055731;28;20155;-90
2023/07/30 05:16:01;;;;;;;1.52;0.90;;;19.30;99.90;;;;;;5054685;28;20029;-90
2023/07/30 05:18:27;;;;;;;1.67;1.02;;;19.30;99.90;;;;;;5054651;28;20021;-90
2023/07/30 05:20:52;;;;;;;2.58;1.08;;;19.30;99.90;;;;;;5036768;28;20029;-90
2023/07/30 05:23:19;;;;;;;1.48;1.00;;;19.30;99.90;;;;;;5037033;28;20032;-90
2023/07/30 05:25:44;;;;;;;2.03;1.08;;;19.40;99.90;;;;;;5037933;28;20052;-90
2023/07/30 05:28:10;;;;;;;1.92;1.10;;;19.40;99.90;;;;;;5037761;28;20064;-90
2023/07/30 05:30:35;;;;;;;3.10;1.10;;;19.40;99.90;;;;;;5056265;28;20028;-90
2023/07/30 05:33:01;;;;;;;3.40;1.40;;;19.40;99.90;;;;;;5054519;28;20120;-88
2023/07/30 05:35:26;;;;;;;1.65;1.00;;;19.40;99.90;;;;;;5055340;28;20029;-88
2023/07/30 05:37:52;;;;;;;3.50;1.05;;;19.40;99.90;;;;;;5037226;28;20036;-88
2023/07/30 05:40:18;;;;;;;1.10;0.90;;;19.50;99.90;;;;;;5056234;28;20029;-88
2023/07/30 05:42:43;;;;;;;1.85;1.05;;;19.60;99.90;;;;;;5055839;28;20021;-88
2023/07/30 05:45:09;;;;;;;2.88;1.30;;;19.70;99.90;;;;;;5036857;28;20117;-89
2023/07/30 05:47:35;;;;;;;3.17;1.30;;;19.70;99.90;;;;;;5054892;28;20093;-87
2023/07/30 05:50:02;;;;;;;1.63;1.10;;;19.80;99.90;;;;;;5030999;28;20455;-88
2023/07/30 05:52:27;;;;;;;1.73;1.40;;;19.80;99.90;;;;;;5045872;28;20468;-88
2023/07/30 05:54:53;;;;;;;2.17;1.38;;;19.80;99.90;;;;;;5036159;28;20021;-84
2023/07/30 05:57:18;;;;;;;2.20;1.48;;;19.80;99.90;;;;;;5037122;28;20029;-84
2023/07/30 05:59:44;;;;;;;1.55;1.10;;;19.80;99.90;;;;;;5036435;28;20057;-84
2023/07/30 06:02:09;;;;;;;2.05;1.60;;;19.90;99.90;;;;;;5054771;28;20075;-83
2023/07/30 06:04:35;;;;;;;2.40;1.40;;;19.90;99.90;;;;;;5046089;28;20030;-83
2023/07/30 06:07:03;;;;;;;1.80;1.60;;;20.00;99.90;;;;;;5031004;28;20407;-84
2023/07/30 06:09:28;;;;;;;3.80;1.40;;;20.10;99.90;;;;;;5040557;28;20025;-84
2023/07/30 06:11:57;;;;;;;1.77;1.55;;;20.10;99.90;;;;;;5034750;28;20431;-84
2023/07/30 06:14:23;;;;;;;2.28;1.70;;;20.10;99.90;;;;;;5017552;28;20080;-83
2023/07/30 06:16:49;;;;;;;4.50;1.70;;;20.10;99.90;;;;;;5016966;28;20030;-83
2023/07/30 06:19:14;;;;;;;4.03;1.67;;;20.10;99.90;;;;;;5016572;28;20037;-83
2023/07/30 06:21:40;;;;;;;2.25;1.45;;;20.10;99.90;;;;;;5017128;28;20032;-84
2023/07/30 06:24:06;;;;;;;3.00;1.30;;;20.00;99.90;;;;;;5037536;28;20028;-86
2023/07/30 06:26:32;;;;;;;1.38;1.13;;;20.00;99.90;;;;;;5037114;28;20029;-88
2023/07/30 06:28:57;;;;;;;4.55;1.30;;;19.90;99.90;;;;;;5035913;28;20080;-82
2023/07/30 06:31:23;;;;;;;2.40;1.52;;;19.90;99.90;;;;;;5032325;28;20033;-81
2023/07/30 06:33:49;;;;;;;3.15;1.50;;;19.90;99.90;;;;;;5020965;28;20025;-89
2023/07/30 06:36:14;;;;;;;1.33;1.00;;;19.80;99.90;;;;;;5019313;28;20025;-85
2023/07/30 06:38:40;;;;;;;2.25;0.90;;;19.70;99.90;;;;;;5028104;28;20029;-84
2023/07/30 06:41:06;;;;;;;2.05;1.10;;;19.70;99.90;;;;;;5035293;28;20060;-85
2023/07/30 06:43:31;;;;;;;2.45;1.05;;;19.60;99.90;;;;;;5034441;28;20069;-85
2023/07/30 06:45:57;;;;;;;5.68;1.23;;;19.60;99.90;;;;;;5022359;28;20021;-86
2023/07/30 06:48:22;;;;;;;2.17;1.17;;;19.50;99.90;;;;;;5020144;28;20044;-86
2023/07/30 06:50:48;;;;;;;1.52;0.98;;;19.50;99.90;;;;;;5030201;28;20080;-85
2023/07/30 06:53:14;;;;;;;1.90;1.40;;;19.50;99.90;;;;;;5035964;28;20024;-87
2023/07/30 06:55:39;;;;;;;1.92;1.08;;;19.60;99.90;;;;;;5016287;28;20029;-86
2023/07/30 06:58:05;;;;;;;3.70;1.20;;;19.60;99.90;;;;;;5016397;28;20041;-86
2023/07/30 07:00:30;;;;;;;1.10;1.00;;;19.60;99.90;;;;;;5040250;28;20406;-87
2023/07/30 07:02:56;;;;;;;1.85;1.10;;;19.60;99.90;;;;;;5052811;28;20183;-85
2023/07/30 07:05:22;;;;;;;2.53;1.60;;;19.70;99.90;;;;;;5053581;28;20520;-85
2023/07/30 07:07:47;;;;;;;2.35;1.27;;;19.70;99.90;;;;;;5036360;28;20072;-85
2023/07/30 07:10:13;;;;;;;2.40;1.33;;;19.70;99.90;;;;;;5047594;28;20024;-81
2023/07/30 07:12:39;;;;;;;1.83;1.35;;;19.70;99.90;;;;;;5061961;28;20029;-81
2023/07/30 07:15:05;;;;;;;2.92;1.58;;;19.80;99.90;;;;;;5034906;28;20458;-82
2023/07/30 07:17:31;;;;;;;1.95;1.23;;;19.80;99.90;;;;;;5036001;28;20029;-82
2023/07/30 07:19:57;;;;;;;2.03;1.60;;;19.80;99.90;;;;;;5053075;28;20037;-90
2023/07/30 07:22:24;;;;;;;3.72;1.65;;;19.80;99.90;;;;;;5035869;28;20418;-81
2023/07/30 07:24:52;;;;;;;5.15;1.42;;;19.80;99.90;;;;;;5052592;28;20478;-83
2023/07/30 07:27:18;;;;;;;2.50;1.20;;;19.80;99.90;;;;;;5035446;28;20032;-82
2023/07/30 07:29:43;;;;;;;2.58;1.55;;;19.90;99.90;;;;;;5053254;28;20103;-82
2023/07/30 07:32:10;;;;;;;2.33;1.30;;;19.90;99.90;;;;;;5035538;28;20029;-82
2023/07/30 07:34:36;;;;;;;1.92;1.50;;;20.00;99.90;;;;;;5055338;28;20572;-82
2023/07/30 07:37:02;;;;;;;2.50;1.50;;;20.10;99.90;;;;;;5039706;28;20057;-80
2023/07/30 07:39:28;;;;;;;3.38;1.60;;;20.10;99.90;;;;;;5058397;28;20028;-84
2023/07/30 07:41:55;;;;;;;2.88;1.50;;;20.20;99.90;;;;;;5043078;28;20067;-86
2023/07/30 07:44:21;;;;;;;1.98;1.40;;;20.20;99.90;;;;;;5032574;28;20029;-81
2023/07/30 07:46:47;;;;;;;4.50;1.52;;;20.20;99.90;;;;;;5041324;28;20024;-84
2023/07/30 07:49:12;;;;;;;2.13;1.38;;;20.40;99.90;;;;;;5040037;28;20040;-83
2023/07/30 07:51:38;;;;;;;1.70;1.20;;;20.40;99.90;;;;;;5039877;28;20075;-84
2023/07/30 07:54:03;;;;;;;2.15;1.60;;;20.50;99.90;;;;;;5057085;28;20027;-84
2023/07/30 07:56:30;;;;;;;2.08;1.30;;;20.50;99.90;;;;;;5039259;28;20056;-82
2023/07/30 07:58:56;;;;;;;3.42;1.45;;;20.50;99.90;;;;;;5039238;28;20150;-88
2023/07/30 08:01:21;;;;;;;3.72;1.40;;;20.60;99.90;;;;;;5057390;28;20520;-85
2023/07/30 08:03:47;;;;;;;2.80;1.50;;;20.60;99.90;;;;;;5057041;28;20021;-81
2023/07/30 08:06:12;;;;;;;1.95;1.40;;;20.70;99.90;;;;;;5057180;28;20033;-80
2023/07/30 08:08:38;;;;;;;3.67;1.20;;;20.80;99.90;;;;;;5056006;28;20036;-81
2023/07/30 08:11:08;;;;;;;2.28;1.40;;;20.90;99.90;;;;;;5036576;28;20024;-82
2023/07/30 08:13:35;;;;;;;1.50;1.23;;;20.90;99.90;;;;;;5037226;28;20061;-81
2023/07/30 08:16:00;;;;;;;2.80;1.30;;;21.00;99.90;;;;;;5038227;28;20059;-88
2023/07/30 08:18:27;;;;;;;1.88;1.20;;;21.10;99.90;;;;;;5056758;28;20029;-89
2023/07/30 08:20:52;;;;;;;3.53;0.95;;;21.10;99.90;;;;;;5039307;28;20098;-91
2023/07/30 08:23:18;;;;;;;1.55;1.08;;;21.10;99.90;;;;;;5038056;28;20855;-90
2023/07/30 08:25:43;;;;;;;3.15;1.25;;;21.00;99.90;;;;;;5037316;28;20048;-86
2023/07/30 08:28:09;;;;;;;2.22;1.30;;;20.90;99.90;;;;;;5037972;28;20386;-85
2023/07/30 08:30:34;;;;;;;1.73;1.30;;;21.00;99.90;;;;;;5044164;28;20163;-87
2023/07/30 08:33:00;;;;;;;2.25;1.30;;;20.90;99.90;;;;;;5048184;28;20053;-87
2023/07/30 08:35:26;;;;;;;4.05;1.88;;;21.00;99.90;;;;;;5041346;28;20052;-84
2023/07/30 08:37:52;;;;;;;3.92;1.23;;;21.10;99.90;;;;;;5046440;28;20092;-84
2023/07/30 08:40:20;;;;;;;1.90;1.27;;;21.10;99.90;;;;;;5051163;28;20361;-84
2023/07/30 08:42:46;;;;;;;1.30;1.05;;;21.20;99.90;;;;;;5041547;28;20025;-86
2023/07/30 08:45:11;;;;;;;1.52;1.40;;;21.40;99.90;;;;;;5055674;28;20032;-79
2023/07/30 08:47:40;;;;;;;2.15;1.27;;;21.30;99.90;;;;;;5056102;28;20033;-81
2023/07/30 08:50:06;;;;;;;3.90;1.17;;;21.40;99.90;;;;;;5054884;28;20022;-83
2023/07/30 08:52:34;;;;;;;3.00;1.23;;;21.40;99.90;;;;;;5038863;28;20849;-82
2023/07/30 08:55:02;;;;;;;2.42;1.30;;;21.40;99.90;;;;;;5064055;28;20030;-75
2023/07/30 08:57:29;;;;;;;2.85;1.20;;;21.30;99.90;;;;;;5040417;28;20032;-79
2023/07/30 09:00:04;;;;;;;4.60;1.08;;;21.30;99.90;;;;;;5037947;28;20111;-86
2023/07/30 09:02:38;;;;;;;1.85;1.08;;;21.30;99.90;;;;;;5041219;28;20053;-80
2023/07/30 09:05:04;;;;;;;4.22;1.40;;;21.30;99.90;;;;;;5055906;28;20033;-80
2023/07/30 09:07:30;;;;;;;1.40;1.10;;;21.30;99.90;;;;;;5075814;28;20040;-80
2023/07/30 09:09:56;;;;;;;1.77;1.15;;;21.40;99.90;;;;;;5057215;28;20025;-84
2023/07/30 09:12:28;;;;;;;3.47;1.73;;;21.40;99.90;;;;;;5049264;28;20024;-78
2023/07/30 09:14:54;;;;;;;3.00;1.20;;;21.40;99.90;;;;;;5061078;28;20024;-83
2023/07/30 09:17:19;;;;;;;2.15;1.30;;;21.50;99.90;;;;;;5048457;28;20373;-76
2023/07/30 09:19:47;;;;;;;4.30;1.40;;;21.60;99.90;;;;;;5038667;28;20025;-77
2023/07/30 09:22:12;;;;;;;1.83;1.40;;;21.60;99.90;;;;;;5054775;28;20089;-78
2023/07/30 09:24:45;;;;;;;1.70;1.38;;;21.70;99.90;;;;;;5037776;28;20052;-79
2023/07/30 09:27:11;;;;;;;1.52;1.23;;;21.80;99.90;;;;;;5019669;28;20024;-82
2023/07/30 09:29:36;;;;;;;3.10;1.48;;;21.70;99.90;;;;;;5027644;28;20030;-80
2023/07/30 09:32:02;;;;;;;2.40;1.30;;;21.70;99.90;;;;;;5059802;28;20489;-81
2023/07/30 09:34:30;;;;;;;5.03;2.50;;;21.80;99.90;;;;;;5052857;28;20025;-83
2023/07/30 09:36:56;;;;;;;1.75;1.58;;;21.80;99.90;;;;;;5055740;28;20032;-78
2023/07/30 09:39:26;;;;;;;2.72;1.73;;;21.90;99.90;;;;;;5056083;28;20025;-79
2023/07/30 09:41:59;;;;;;;3.50;1.17;;;21.90;99.90;;;;;;5035509;28;20132;-82
2023/07/30 09:44:24;;;;;;;2.63;1.17;;;22.00;99.90;;;;;;5054687;28;20072;-83
2023/07/30 09:46:50;;;;;;;3.95;1.20;;;22.00;99.90;;;;;;5036378;28;20478;-82
2023/07/30 09:49:17;;;;;;;2.55;1.20;;;21.80;99.90;;;;;;5031639;28;20035;-83
2023/07/30 09:51:43;;;;;;;3.35;1.20;;;21.80;99.90;;;;;;5037215;28;20048;-85
2023/07/30 09:54:11;;;;;;;3.10;1.10;;;21.60;99.90;;;;;;5041698;28;20413;-85
2023/07/30 09:56:38;;;;;;;1.65;1.17;;;21.50;99.90;;;;;;5045168;28;20124;-84
2023/07/30 09:59:07;;;;;;;2.03;1.20;;;21.40;99.90;;;;;;5038120;28;20028;-82
2023/07/30 10:01:38;;;;;;;3.38;1.20;;;21.30;99.90;;;;;;5052011;28;20025;-81
2023/07/30 10:04:08;;;;;;;4.50;1.33;;;21.40;99.90;;;;;;5051197;28;20028;-80
2023/07/30 10:06:47;;;;;;;1.58;0.98;;;21.40;99.90;;;;;;5060039;28;20036;-81
2023/07/30 10:09:14;;;;;;;2.55;1.00;;;21.40;99.90;;;;;;5053569;28;20037;-80
2023/07/30 10:11:41;;;;;;;1.52;0.95;;;21.60;99.90;;;;;;5036147;28;20025;-80
2023/07/30 10:14:07;;;;;;;2.35;1.08;;;21.70;99.90;;;;;;5053614;28;20023;-81
2023/07/30 10:16:33;;;;;;;2.08;1.30;;;21.80;99.90;;;;;;5056054;28;20017;-79
2023/07/30 10:18:59;;;;;;;2.28;0.88;;;21.80;99.90;;;;;;5045768;28;20155;-82
2023/07/30 10:21:26;;;;;;;1.42;0.93;;;21.80;99.90;;;;;;5036758;28;20025;-86
2023/07/30 10:24:03;;;;;;;1.50;0.80;;;21.70;99.90;;;;;;5043520;28;20072;-84
2023/07/30 10:26:31;;;;;;;1.30;0.73;;;21.60;99.90;;;;;;5035720;28;20079;-83
2023/07/30 10:29:19;;;;;;;1.10;0.85;;;21.70;99.90;;;;;;5046386;28;20462;-87
2023/07/30 10:31:54;;;;;;;0.90;0.60;;;21.90;99.90;;;;;;5036518;28;20470;-90
2023/07/30 10:34:19;;;;;;;2.28;0.63;;;21.90;99.90;;;;;;5027076;28;20032;-93
2023/07/30 10:36:49;;;;;;;2.88;0.85;;;22.00;99.90;;;;;;5053557;28;20020;-86
2023/07/30 10:39:21;;;;;;;1.08;0.80;;;22.00;99.90;;;;;;5053590;28;20104;-86
2023/07/30 10:41:53;;;;;;;3.05;0.90;;;22.00;99.90;;;;;;5036582;28;20025;-87
2023/07/30 10:44:24;;;;;;;1.67;0.70;;;22.10;99.90;;;;;;5035398;28;20094;-89
2023/07/30 10:46:50;;;;;;;1.00;0.80;;;22.30;99.90;;;;;;5030666;28;20033;-89
2023/07/30 10:49:16;;;;;;;3.47;1.17;;;22.50;99.90;;;;;;5027155;28;20182;-86
2023/07/30 10:51:41;;;;;;;2.90;0.98;;;22.60;99.90;;;;;;5036725;28;20107;-88
2023/07/30 10:54:09;;;;;;;1.30;0.80;;;22.60;99.90;;;;;;5053453;28;20092;-87
2023/07/30 10:56:37;;;;;;;2.30;0.80;;;22.50;99.90;;;;;;5045295;28;20017;-86
2023/07/30 10:59:05;;;;;;;1.17;0.55;;;22.50;99.90;;;;;;5033999;28;20029;-90
2023/07/30 11:01:31;;;;;;;1.38;0.50;;;22.40;99.90;;;;;;5053815;28;20048;-84
2023/07/30 11:03:57;;;;;;;0.82;0.55;;;22.30;99.90;;;;;;5041718;28;20459;-87
2023/07/30 11:06:27;;;;;;;1.90;0.50;;;22.20;99.90;;;;;;5037916;28;20025;-83
2023/07/30 11:08:52;;;;;;;0.95;0.40;;;22.10;99.90;;;;;;5043381;28;20086;-80
2023/07/30 11:11:18;;;;;;;0.90;0.50;;;22.00;99.90;;;;;;5035434;28;20151;-86
2023/07/30 11:13:48;;;;;;;1.33;0.70;;;22.20;99.90;;;;;;5035629;28;20021;-86
2023/07/30 11:16:15;;;;;;;3.05;0.68;;;22.20;99.90;;;;;;5054701;28;20033;-81
2023/07/30 11:18:42;;;;;;;1.42;0.60;;;22.20;99.90;;;;;;5041427;28;20041;-80
2023/07/30 11:21:14;;;;;;;2.35;0.60;;;22.20;99.90;;;;;;5061964;28;20103;-83
2023/07/30 11:23:43;;;;;;;1.15;0.30;;;22.20;99.90;;;;;;5039424;28;20078;-81
2023/07/30 11:26:17;;;;;;;0.73;0.50;;;22.20;99.90;;;;;;5065636;28;20028;-82
2023/07/30 11:28:43;;;;;;;1.10;0.50;;;22.30;99.90;;;;;;5058203;28;20068;-81
2023/07/30 11:31:15;;;;;;;1.45;0.60;;;22.20;99.90;;;;;;5044221;28;20033;-81
2023/07/30 11:33:46;;;;;;;1.40;0.55;;;22.10;99.90;;;;;;5043983;28;20393;-78
2023/07/30 11:36:15;;;;;;;0.45;0.43;;;22.20;99.90;;;;;;5040139;28;20655;-81
2023/07/30 11:38:41;;;;;;;2.83;0.50;;;22.40;99.90;;;;;;5024153;28;20032;-80
2023/07/30 11:41:09;;;;;;;2.72;0.50;;;22.40;99.90;;;;;;5071643;28;20067;-79
2023/07/30 11:43:39;;;;;;;1.13;0.70;;;22.40;99.90;;;;;;5052766;28;20025;-79
2023/07/30 11:46:16;;;;;;;1.13;0.68;;;22.60;99.90;;;;;;5064214;28;20020;-78
2023/07/30 11:48:47;;;;;;;3.00;0.70;;;22.60;99.90;;;;;;5065013;28;20043;-78
2023/07/30 11:51:20;;;;;;;2.75;0.50;;;22.60;99.90;;;;;;5041385;28;20067;-78
2023/07/30 11:53:47;;;;;;;1.63;0.80;;;22.60;99.90;;;;;;5047383;28;20028;-78
2023/07/30 11:56:21;;;;;;;1.70;0.60;;;22.70;99.90;;;;;;5046593;28;20029;-78
2023/07/30 11:58:48;;;;;;;3.35;1.13;;;22.70;99.70;;;;;;5041631;28;20276;-78
2023/07/30 12:01:15;;;;;;;2.75;0.70;;;22.80;99.90;;;;;;5040694;28;20045;-79
2023/07/30 12:03:41;;;;;;;3.22;0.70;;;22.70;99.10;;;;;;5040342;28;20084;-77
2023/07/30 12:06:09;;;;;;;1.85;0.80;;;22.60;99.00;;;;;;5057342;28;20489;-80
2023/07/30 12:08:35;;;;;;;0.93;0.80;;;22.60;99.30;;;;;;5036736;28;20033;-74
2023/07/30 12:11:06;;;;;;;1.90;0.80;;;22.70;99.00;;;;;;5033564;28;20473;-75
2023/07/30 12:13:32;;;;;;;2.85;0.63;;;22.70;98.30;;;;;;5041483;28;20033;-76
2023/07/30 12:15:59;;;;;;;1.95;0.70;;;22.70;98.60;;;;;;5039780;28;20489;-81
2023/07/30 12:18:26;;;;;;;2.40;0.60;;;22.80;98.30;;;;;;5033521;28;20486;-75
2023/07/30 12:20:53;;;;;;;3.53;0.90;;;22.80;98.50;;;;;;5020760;28;20022;-75
2023/07/30 12:23:20;;;;;;;4.75;0.90;;;23.00;98.40;;;;;;5038266;28;20223;-75
2023/07/30 12:25:46;;;;;;;1.45;0.70;;;23.00;97.60;;;;;;5030992;28;20024;-74
2023/07/30 12:28:12;;;;;;;3.92;0.90;;;22.90;97.70;;;;;;5038278;28;20048;-82
2023/07/30 12:30:38;;;;;;;2.67;1.00;;;22.80;98.00;;;;;;5058426;28;20036;-80
2023/07/30 12:33:05;;;;;;;2.22;0.60;;;22.80;97.70;;;;;;5052315;28;20025;-83
2023/07/30 12:35:31;;;;;;;3.25;0.98;;;22.60;98.20;;;;;;5046412;28;20030;-87
2023/07/30 12:37:57;;;;;;;3.42;0.80;;;22.60;98.40;;;;;;5045491;28;20598;-80
2023/07/30 12:40:23;;;;;;;1.90;0.80;;;22.60;98.30;;;;;;5035285;28;20474;-83
2023/07/30 12:42:49;;;;;;;2.00;0.63;;;22.70;98.30;;;;;;5036183;28;20114;-85
2023/07/30 12:45:14;;;;;;;3.92;1.17;;;22.80;98.30;;;;;;5034193;28;20033;-85